createdAt,value
2017-10-21T00:01:03.434Z,11.66
2017-10-21T00:06:04.198Z,11.66
2017-10-21T00:11:04.385Z,11.66
2017-10-21T00:16:04.143Z,11.66
2017-10-21T00:21:03.976Z,11.66
2017-10-21T00:26:03.728Z,11.66
2017-10-21T00:31:03.521Z,11.66
2017-10-21T00:36:04.305Z,11.66
2017-10-21T00:41:03.508Z,11.66
2017-10-21T00:46:04.240Z,11.66
2017-10-21T00:51:04.038Z,11.66
2017-10-21T00:56:03.780Z,11.66
2017-10-21T01:01:03.549Z,11.66
2017-10-21T01:06:04.352Z,11.66
2017-10-21T01:11:03.611Z,11.66
2017-10-21T01:16:04.353Z,11.66
2017-10-21T01:21:04.214Z,11.66
2017-10-21T01:26:03.958Z,11.54
2017-10-21T01:31:03.734Z,11.66
2017-10-21T01:36:03.510Z,11.66
2017-10-21T01:41:03.669Z,11.66
2017-10-21T01:46:03.438Z,11.66
2017-10-21T01:51:04.167Z,11.66
2017-10-21T01:56:03.968Z,11.66
2017-10-21T02:01:03.695Z,11.68
2017-10-21T02:06:03.450Z,11.68
2017-10-21T02:11:03.680Z,11.68
2017-10-21T02:16:03.443Z,11.56
2017-10-21T02:21:04.269Z,11.68
2017-10-21T02:26:04.113Z,11.68
2017-10-21T02:31:03.872Z,11.56
2017-10-21T02:36:03.591Z,11.56
2017-10-21T02:41:03.807Z,11.56
2017-10-21T02:46:03.770Z,11.56
2017-10-21T02:51:03.468Z,11.56
2017-10-21T02:56:04.226Z,11.56
2017-10-21T03:01:03.963Z,11.56
2017-10-21T03:06:03.785Z,11.70
2017-10-21T03:11:04.000Z,11.56
2017-10-21T03:16:03.762Z,11.56
2017-10-21T03:21:03.773Z,11.56
2017-10-21T03:26:03.548Z,11.56
2017-10-21T03:31:04.282Z,11.72
2017-10-21T03:36:04.067Z,11.56
2017-10-21T03:41:04.280Z,11.54
2017-10-21T03:46:04.073Z,11.66
2017-10-21T03:51:03.811Z,11.63
2017-10-21T03:56:03.581Z,11.61
2017-10-21T04:01:03.404Z,11.61
2017-10-21T04:06:04.204Z,11.70
2017-10-21T04:11:03.423Z,11.68
2017-10-21T04:16:04.205Z,11.68
2017-10-21T04:21:04.046Z,11.68
2017-10-21T04:26:03.569Z,11.68
2017-10-21T04:31:04.389Z,11.68
2017-10-21T04:36:04.171Z,11.68
2017-10-21T04:41:04.363Z,11.68
2017-10-21T04:46:04.110Z,11.68
2017-10-21T04:51:03.866Z,11.70
2017-10-21T04:56:03.659Z,11.70
2017-10-21T05:01:03.436Z,11.73
2017-10-21T05:06:04.174Z,11.73
2017-10-21T05:11:03.466Z,11.73
2017-10-21T05:16:04.217Z,11.63
2017-10-21T05:21:04.051Z,11.63
2017-10-21T05:26:03.785Z,11.63
2017-10-21T05:31:03.575Z,11.63
2017-10-21T05:36:04.347Z,11.63
2017-10-21T05:41:03.608Z,11.63
2017-10-21T05:46:04.319Z,11.63
2017-10-21T05:51:04.136Z,11.63
2017-10-21T05:56:03.875Z,11.63
2017-10-21T06:01:03.695Z,11.61
2017-10-21T06:06:03.468Z,11.61
2017-10-21T06:11:03.685Z,11.73
2017-10-21T06:16:03.467Z,11.73
2017-10-21T06:21:04.286Z,11.73
2017-10-21T06:26:04.040Z,11.73
2017-10-21T06:31:03.851Z,11.61
2017-10-21T06:36:03.581Z,11.73
2017-10-21T06:41:03.692Z,11.61
2017-10-21T06:46:03.552Z,11.61
2017-10-21T06:51:04.343Z,11.73
2017-10-21T06:56:04.063Z,11.75
2017-10-21T07:01:03.827Z,11.63
2017-10-21T07:06:03.601Z,11.89
2017-10-21T07:11:03.742Z,11.63
2017-10-21T07:16:03.535Z,11.63
2017-10-21T07:21:04.352Z,11.63
2017-10-21T07:26:04.088Z,11.63
2017-10-21T07:31:03.819Z,11.66
2017-10-21T07:36:03.621Z,11.66
2017-10-21T07:41:03.874Z,11.66
2017-10-21T07:46:03.597Z,11.66
2017-10-21T07:51:03.416Z,11.66
2017-10-21T07:56:04.162Z,11.66
2017-10-21T08:01:03.941Z,11.68
2017-10-21T08:06:03.724Z,11.68
2017-10-21T08:11:03.893Z,11.66
2017-10-21T08:16:03.648Z,11.68
2017-10-21T08:21:03.461Z,11.56
2017-10-21T08:26:04.251Z,11.68
2017-10-21T08:31:04.087Z,11.68
2017-10-21T08:36:03.886Z,11.58
2017-10-21T08:41:04.175Z,11.70
2017-10-21T08:46:04.008Z,11.70
2017-10-21T08:51:03.745Z,11.70
2017-10-21T08:56:03.503Z,11.68
2017-10-21T09:01:04.300Z,11.80
2017-10-21T09:06:04.046Z,11.77
2017-10-21T09:11:04.207Z,11.73
2017-10-21T09:16:04.001Z,11.87
2017-10-21T09:21:03.868Z,11.94
2017-10-21T09:26:03.592Z,11.89
2017-10-21T09:31:04.334Z,11.98
2017-10-21T09:36:04.187Z,12.01
2017-10-21T09:41:04.309Z,12.05
2017-10-21T09:46:04.183Z,12.05
2017-10-21T09:51:03.921Z,12.05
2017-10-21T09:56:03.890Z,12.08
2017-10-21T10:01:03.662Z,12.08
2017-10-21T10:06:03.588Z,11.96
2017-10-21T10:11:03.787Z,11.98
2017-10-21T10:16:03.661Z,11.98
2017-10-21T10:21:03.436Z,11.98
2017-10-21T10:26:04.241Z,11.96
2017-10-21T10:31:03.951Z,11.96
2017-10-21T10:36:03.724Z,11.96
2017-10-21T10:41:03.884Z,11.93
2017-10-21T10:46:03.640Z,11.93
2017-10-21T10:51:03.444Z,11.93
2017-10-21T10:56:04.196Z,11.91
2017-10-21T11:01:04.014Z,11.91
2017-10-21T11:06:03.865Z,11.91
2017-10-21T11:11:04.003Z,11.91
2017-10-21T11:16:03.783Z,11.91
2017-10-21T11:21:03.609Z,11.91
2017-10-21T11:26:04.364Z,11.91
2017-10-21T11:31:04.207Z,11.91
2017-10-21T11:36:04.045Z,11.91
2017-10-21T11:41:04.191Z,11.91
2017-10-21T11:46:04.044Z,12.00
2017-10-21T11:51:03.820Z,11.91
2017-10-21T11:56:03.611Z,11.91
2017-10-21T12:01:04.380Z,11.91
2017-10-21T12:06:04.214Z,11.91
2017-10-21T12:11:03.406Z,11.91
2017-10-21T12:16:04.245Z,11.91
2017-10-21T12:21:04.162Z,11.91
2017-10-21T12:26:03.937Z,11.91
2017-10-21T12:31:03.755Z,11.91
2017-10-21T12:36:03.514Z,11.91
2017-10-21T12:41:03.657Z,11.91
2017-10-21T12:46:03.450Z,11.91
2017-10-21T12:51:04.195Z,11.91
2017-10-21T12:56:04.015Z,11.91
2017-10-21T13:01:03.782Z,11.91
2017-10-21T13:06:03.555Z,11.91
2017-10-21T13:11:03.768Z,11.79
2017-10-21T13:16:03.526Z,11.79
2017-10-21T13:21:03.394Z,11.91
2017-10-21T13:26:04.176Z,11.91
2017-10-21T13:31:03.868Z,11.91
2017-10-21T13:36:03.703Z,11.91
2017-10-21T13:41:03.859Z,11.91
2017-10-21T13:46:03.643Z,11.91
2017-10-21T13:51:03.385Z,11.91
2017-10-21T13:56:04.222Z,11.91
2017-10-21T14:01:03.930Z,11.91
2017-10-21T14:06:03.638Z,11.91
2017-10-21T14:11:03.847Z,11.91
2017-10-21T14:16:03.670Z,11.91
2017-10-21T14:21:03.452Z,11.91
2017-10-21T14:26:04.294Z,11.91
2017-10-21T14:31:04.056Z,11.89
2017-10-21T14:36:03.907Z,11.89
2017-10-21T14:41:04.149Z,11.89
2017-10-21T14:46:03.882Z,11.91
2017-10-21T14:51:03.606Z,11.89
2017-10-21T14:56:03.436Z,11.77
2017-10-21T15:01:04.122Z,11.89
2017-10-21T15:06:03.876Z,11.89
2017-10-21T15:11:03.999Z,11.89
2017-10-21T15:16:03.765Z,11.89
2017-10-21T15:21:03.636Z,11.89
2017-10-21T15:26:04.344Z,11.89
2017-10-21T15:31:04.153Z,11.77
2017-10-21T15:36:03.934Z,11.89
2017-10-21T15:41:04.067Z,11.89
2017-10-21T15:46:03.866Z,11.89
2017-10-21T15:51:03.652Z,11.77
2017-10-21T15:56:03.523Z,11.89
2017-10-21T16:01:04.289Z,11.77
2017-10-21T16:06:04.014Z,11.77
2017-10-21T16:11:04.229Z,11.87
2017-10-21T16:16:04.031Z,11.87
2017-10-21T16:21:03.977Z,11.87
2017-10-21T16:26:03.734Z,11.87
2017-10-21T16:31:03.554Z,11.77
2017-10-21T16:36:04.310Z,11.87
2017-10-21T16:41:03.573Z,11.87
2017-10-21T16:46:04.269Z,11.87
2017-10-21T16:51:04.078Z,11.84
2017-10-21T16:56:03.819Z,11.84
2017-10-21T17:01:03.616Z,11.80
2017-10-21T17:06:04.325Z,11.68
2017-10-21T17:11:03.722Z,11.64
2017-10-21T17:16:03.493Z,11.64
2017-10-21T17:21:04.389Z,11.68
2017-10-21T17:26:04.118Z,11.68
2017-10-21T17:31:03.877Z,11.80
2017-10-21T17:36:03.665Z,11.82
2017-10-21T17:41:03.857Z,11.89
2017-10-21T17:46:03.646Z,11.85
2017-10-21T17:51:03.371Z,11.85
2017-10-21T17:56:04.177Z,11.87
2017-10-21T18:01:04.105Z,11.87
2017-10-21T18:06:03.933Z,11.87
2017-10-21T18:11:04.001Z,11.89
2017-10-21T18:16:03.802Z,11.89
2017-10-21T18:21:03.711Z,11.92
2017-10-21T18:26:03.546Z,11.89
2017-10-21T18:31:04.402Z,11.94
2017-10-21T18:36:04.189Z,12.03
2017-10-21T18:41:03.418Z,12.05
2017-10-21T18:46:04.252Z,12.05
2017-10-21T18:51:04.061Z,12.19
2017-10-21T18:56:03.808Z,12.22
2017-10-21T19:01:03.575Z,12.24
2017-10-21T19:06:04.386Z,12.26
2017-10-21T19:11:03.639Z,12.26
2017-10-21T19:16:03.644Z,12.28
2017-10-21T19:21:03.503Z,12.31
2017-10-21T19:26:04.259Z,12.31
2017-10-21T19:31:04.084Z,12.31
2017-10-21T19:36:03.796Z,12.33
2017-10-21T19:41:03.960Z,12.33
2017-10-21T19:46:03.706Z,12.35
2017-10-21T19:51:03.520Z,12.37
2017-10-21T19:56:04.242Z,12.37
2017-10-21T20:01:04.132Z,12.37
2017-10-21T20:06:03.932Z,12.37
2017-10-21T20:11:04.112Z,12.37
2017-10-21T20:16:03.865Z,12.42
2017-10-21T20:21:03.697Z,12.44
2017-10-21T20:26:03.520Z,12.44
2017-10-21T20:31:04.256Z,12.44
2017-10-21T20:36:04.398Z,12.56
2017-10-21T20:41:04.385Z,12.56
2017-10-21T20:46:04.149Z,12.46
2017-10-21T20:51:03.945Z,12.46
2017-10-21T20:56:03.723Z,12.58
2017-10-21T21:01:03.482Z,12.58
2017-10-21T21:06:04.273Z,12.58
2017-10-21T21:11:03.437Z,12.58
2017-10-21T21:16:04.248Z,12.62
2017-10-21T21:21:04.091Z,12.60
2017-10-21T21:26:03.811Z,12.60
2017-10-21T21:31:03.664Z,12.49
2017-10-21T21:36:03.414Z,12.49
2017-10-21T21:41:03.601Z,12.63
2017-10-21T21:46:04.371Z,12.51
2017-10-21T21:51:04.420Z,12.65
2017-10-21T21:56:03.964Z,12.65
2017-10-21T22:01:03.947Z,12.65
2017-10-21T22:06:03.608Z,12.63
2017-10-21T22:11:03.757Z,12.63
2017-10-21T22:16:03.727Z,12.58
2017-10-21T22:21:03.816Z,12.46
2017-10-21T22:26:03.856Z,12.33
2017-10-21T22:31:03.562Z,12.35
2017-10-21T22:36:03.722Z,12.37
2017-10-21T22:41:03.875Z,12.40
2017-10-21T22:46:03.925Z,12.55
2017-10-21T22:51:03.568Z,12.56
2017-10-21T22:56:04.139Z,12.58
2017-10-21T23:01:04.006Z,12.49
2017-10-21T23:06:03.665Z,12.63
2017-10-21T23:11:03.891Z,12.60
2017-10-21T23:16:03.781Z,12.49
2017-10-21T23:21:03.891Z,12.49
2017-10-21T23:26:03.667Z,12.63
2017-10-21T23:31:03.478Z,12.65
2017-10-21T23:36:04.830Z,12.60
2017-10-21T23:41:04.022Z,12.56
2017-10-21T23:46:04.222Z,12.42
2017-10-21T23:51:04.097Z,12.44
2017-10-21T23:56:04.205Z,12.46
